createdAt,value
2022-08-20T00:03:22.324Z,21.00
2022-08-20T00:07:29.549Z,21.00
2022-08-20T00:11:33.917Z,20.80
2022-08-20T00:15:38.945Z,20.70
2022-08-20T00:19:41.821Z,20.60
2022-08-20T00:23:47.070Z,20.50
2022-08-20T00:27:49.849Z,20.40
2022-08-20T00:31:52.628Z,20.40
2022-08-20T00:35:57.750Z,20.30
2022-08-20T00:40:01.146Z,20.30
2022-08-20T00:44:15.029Z,20.20
2022-08-20T00:48:18.782Z,20.20
2022-08-20T00:52:22.201Z,20.10
2022-08-20T00:56:25.993Z,20.10
2022-08-20T01:00:31.587Z,20.00
2022-08-20T01:04:35.493Z,19.90
2022-08-20T01:08:40.135Z,19.80
2022-08-20T01:12:47.121Z,19.80
2022-08-20T01:16:56.726Z,19.80
2022-08-20T01:21:02.933Z,19.80
2022-08-20T01:25:16.686Z,19.80
2022-08-20T01:29:29.401Z,19.70
2022-08-20T01:33:32.902Z,19.60
2022-08-20T01:37:35.857Z,19.60
2022-08-20T01:42:02.929Z,19.60
2022-08-20T01:46:05.863Z,19.60
2022-08-20T01:50:23.140Z,19.60
2022-08-20T01:54:27.169Z,19.60
2022-08-20T01:58:30.443Z,19.50
2022-08-20T02:02:33.384Z,19.50
2022-08-20T02:06:40.813Z,19.50
2022-08-20T02:10:59.045Z,19.40
2022-08-20T02:15:01.859Z,19.40
2022-08-20T02:19:16.617Z,19.50
2022-08-20T02:23:19.465Z,19.50
2022-08-20T02:27:23.871Z,19.40
2022-08-20T02:31:26.915Z,19.40
2022-08-20T02:35:30.289Z,19.30
2022-08-20T02:39:34.487Z,19.30
2022-08-20T02:43:37.481Z,19.40
2022-08-20T02:47:40.373Z,19.30
2022-08-20T02:51:43.536Z,19.40
2022-08-20T02:55:46.510Z,19.20
2022-08-20T02:59:49.987Z,19.20
2022-08-20T03:03:52.788Z,19.10
2022-08-20T03:07:58.890Z,19.10
2022-08-20T03:12:03.008Z,19.10
2022-08-20T03:16:06.175Z,19.10
2022-08-20T03:20:09.777Z,19.10
2022-08-20T03:24:12.728Z,19.10
2022-08-20T03:28:15.693Z,19.10
2022-08-20T03:32:18.434Z,19.20
2022-08-20T03:36:27.897Z,19.20
2022-08-20T03:40:33.549Z,19.20
2022-08-20T03:44:36.585Z,19.30
2022-08-20T03:48:39.307Z,19.30
2022-08-20T03:52:42.041Z,19.30
2022-08-20T03:56:45.114Z,19.30
2022-08-20T04:00:50.805Z,19.30
2022-08-20T04:04:55.191Z,19.30
2022-08-20T04:08:58.391Z,19.30
2022-08-20T04:13:01.729Z,19.20
2022-08-20T04:17:06.936Z,19.20
2022-08-20T04:21:09.636Z,19.20
2022-08-20T04:25:15.864Z,19.10
2022-08-20T04:29:19.328Z,19.00
2022-08-20T04:33:34.027Z,19.00
2022-08-20T04:37:41.942Z,19.00
2022-08-20T04:41:44.615Z,19.00
2022-08-20T04:45:47.337Z,19.00
2022-08-20T04:49:50.365Z,19.00
2022-08-20T04:53:54.632Z,19.00
2022-08-20T04:58:03.905Z,19.00
2022-08-20T05:02:06.925Z,19.00
2022-08-20T05:06:11.257Z,19.00
2022-08-20T05:10:16.523Z,19.00
2022-08-20T05:14:19.272Z,19.10
2022-08-20T05:18:24.901Z,19.00
2022-08-20T05:22:28.849Z,19.00
2022-08-20T05:26:35.320Z,19.10
2022-08-20T05:30:40.529Z,19.10
2022-08-20T05:34:44.807Z,19.00
2022-08-20T05:38:49.628Z,19.00
2022-08-20T05:42:53.830Z,19.00
2022-08-20T05:46:56.546Z,19.00
2022-08-20T05:50:59.478Z,19.10
2022-08-20T05:55:02.439Z,19.20
2022-08-20T05:59:07.496Z,19.40
2022-08-20T06:03:28.671Z,19.60
2022-08-20T06:07:31.579Z,19.70
2022-08-20T06:11:37.274Z,19.70
2022-08-20T06:15:40.257Z,19.70
2022-08-20T06:19:44.738Z,19.80
2022-08-20T06:23:56.754Z,19.70
2022-08-20T06:28:04.920Z,19.70
2022-08-20T06:32:07.984Z,19.70
2022-08-20T06:36:10.971Z,19.80
2022-08-20T06:40:18.215Z,20.00
2022-08-20T06:44:21.005Z,20.10
2022-08-20T06:48:24.643Z,20.20
2022-08-20T06:52:42.815Z,20.40
2022-08-20T06:56:50.483Z,20.50
2022-08-20T07:00:53.209Z,20.50
2022-08-20T07:04:56.229Z,20.70
2022-08-20T07:08:58.984Z,20.90
2022-08-20T07:13:01.806Z,21.00
2022-08-20T07:17:05.165Z,21.00
2022-08-20T07:21:14.257Z,21.30
2022-08-20T07:25:19.675Z,21.70
2022-08-20T07:29:22.435Z,22.10
2022-08-20T07:33:30.290Z,22.50
2022-08-20T07:37:41.892Z,22.70
2022-08-20T07:41:51.590Z,23.00
2022-08-20T07:46:02.156Z,23.30
2022-08-20T07:50:06.257Z,23.60
2022-08-20T07:54:08.997Z,23.70
2022-08-20T07:58:14.649Z,23.70
2022-08-20T08:02:20.387Z,23.80
2022-08-20T08:06:29.361Z,24.00
2022-08-20T08:10:35.632Z,24.20
2022-08-20T08:14:39.402Z,24.40
2022-08-20T08:18:49.866Z,24.50
2022-08-20T08:22:53.816Z,24.70
2022-08-20T08:26:56.955Z,24.80
2022-08-20T08:30:59.872Z,24.70
2022-08-20T08:35:07.486Z,24.80
2022-08-20T08:39:11.006Z,25.10
2022-08-20T08:43:15.077Z,25.40
2022-08-20T08:47:30.506Z,25.60
2022-08-20T08:51:45.218Z,25.70
2022-08-20T08:55:48.292Z,25.50
2022-08-20T09:00:04.356Z,25.60
2022-08-20T09:04:08.160Z,25.90
2022-08-20T09:08:17.205Z,26.20
2022-08-20T09:12:23.394Z,26.40
2022-08-20T09:16:29.147Z,26.60
2022-08-20T09:20:48.487Z,26.70
2022-08-20T09:24:51.508Z,26.70
2022-08-20T09:28:54.263Z,26.70
2022-08-20T09:32:59.829Z,26.80
2022-08-20T09:37:03.214Z,27.10
2022-08-20T09:41:06.140Z,27.40
2022-08-20T09:45:11.497Z,27.50
2022-08-20T09:49:14.610Z,27.80
2022-08-20T09:53:19.781Z,27.80
2022-08-20T09:57:23.823Z,27.70
2022-08-20T10:01:26.649Z,27.70
2022-08-20T10:05:30.029Z,27.60
2022-08-20T10:09:34.917Z,27.80
2022-08-20T10:13:37.643Z,27.70
2022-08-20T10:17:41.974Z,27.60
2022-08-20T10:21:44.699Z,27.70
2022-08-20T10:25:47.397Z,27.90
2022-08-20T10:29:50.148Z,28.00
2022-08-20T10:33:52.859Z,28.20
2022-08-20T10:37:55.630Z,28.30
2022-08-20T10:41:58.470Z,28.30
2022-08-20T10:46:01.890Z,28.30
2022-08-20T10:50:07.719Z,28.30
2022-08-20T10:54:12.592Z,28.50
2022-08-20T10:58:16.017Z,28.60
2022-08-20T11:02:19.997Z,28.90
2022-08-20T11:06:23.032Z,28.90
2022-08-20T11:10:28.104Z,28.90
2022-08-20T11:14:31.408Z,29.10
2022-08-20T11:18:34.957Z,29.20
2022-08-20T11:22:40.156Z,29.20
2022-08-20T11:26:43.500Z,29.20
2022-08-20T11:30:47.810Z,29.40
2022-08-20T11:34:51.999Z,29.70
2022-08-20T11:38:54.805Z,30.00
2022-08-20T11:43:14.210Z,30.10
2022-08-20T11:47:28.641Z,30.00
2022-08-20T11:51:31.341Z,30.00
2022-08-20T11:55:52.677Z,30.00
2022-08-20T11:59:57.763Z,29.90
2022-08-20T12:04:00.445Z,30.10
2022-08-20T12:08:04.093Z,30.10
2022-08-20T12:12:07.340Z,30.10
2022-08-20T12:16:10.187Z,30.30
2022-08-20T12:20:14.819Z,30.50
2022-08-20T12:24:18.081Z,30.40
2022-08-20T12:28:25.849Z,30.30
2022-08-20T12:32:31.099Z,30.50
2022-08-20T12:36:33.930Z,30.80
2022-08-20T12:40:36.940Z,31.00
2022-08-20T12:44:39.878Z,31.30
2022-08-20T12:48:42.642Z,31.30
2022-08-20T12:52:45.979Z,31.30
2022-08-20T12:56:48.713Z,31.50
2022-08-20T13:00:51.613Z,31.10
2022-08-20T13:04:54.743Z,30.90
2022-08-20T13:08:59.774Z,30.90
2022-08-20T13:13:03.498Z,31.20
2022-08-20T13:17:06.892Z,31.50
2022-08-20T13:21:10.655Z,31.50
2022-08-20T13:25:14.513Z,31.50
2022-08-20T13:29:18.715Z,31.40
2022-08-20T13:33:21.570Z,31.40
2022-08-20T13:37:28.199Z,31.50
2022-08-20T13:41:31.116Z,31.50
2022-08-20T13:45:34.041Z,31.70
2022-08-20T13:49:37.197Z,31.60
2022-08-20T13:53:40.071Z,31.60
2022-08-20T13:57:43.830Z,31.70
2022-08-20T14:01:46.727Z,31.60
2022-08-20T14:05:49.585Z,31.60
2022-08-20T14:09:57.216Z,31.80
2022-08-20T14:14:00.005Z,31.80
2022-08-20T14:18:03.648Z,31.80
2022-08-20T14:22:06.433Z,31.80
2022-08-20T14:26:09.259Z,32.00
2022-08-20T14:30:15.358Z,32.20
2022-08-20T14:34:18.091Z,32.30
2022-08-20T14:38:21.341Z,32.20
2022-08-20T14:42:27.770Z,32.30
2022-08-20T14:46:30.908Z,32.30
2022-08-20T14:50:35.609Z,32.40
2022-08-20T14:54:39.315Z,32.50
2022-08-20T14:58:42.080Z,32.40
2022-08-20T15:02:49.847Z,32.30
2022-08-20T15:06:54.585Z,32.40
2022-08-20T15:10:58.269Z,32.50
2022-08-20T15:15:04.767Z,32.40
2022-08-20T15:19:18.778Z,32.00
2022-08-20T15:23:22.561Z,31.80
2022-08-20T15:27:26.197Z,31.80
2022-08-20T15:31:29.114Z,32.10
2022-08-20T15:35:31.930Z,32.40
2022-08-20T15:39:34.902Z,32.30
2022-08-20T15:43:38.361Z,32.20
2022-08-20T15:47:44.308Z,32.30
2022-08-20T15:51:48.419Z,32.70
2022-08-20T15:56:18.729Z,33.00
2022-08-20T16:00:29.098Z,32.80
2022-08-20T16:05:15.525Z,32.50
2022-08-20T16:10:06.551Z,32.60
2022-08-20T16:14:27.224Z,32.60
2022-08-20T16:18:36.948Z,32.50
2022-08-20T16:22:44.838Z,32.80
2022-08-20T16:27:08.945Z,33.70
2022-08-20T16:31:17.363Z,34.40
2022-08-20T16:35:30.158Z,34.70
2022-08-20T16:39:52.311Z,34.40
2022-08-20T16:44:02.377Z,34.60
2022-08-20T16:48:08.193Z,34.40
2022-08-20T16:52:11.216Z,34.80
2022-08-20T16:56:14.197Z,35.40
2022-08-20T17:00:35.079Z,35.30
2022-08-20T17:04:58.654Z,34.30
2022-08-20T17:09:07.514Z,33.50
2022-08-20T17:13:16.145Z,32.90
2022-08-20T17:17:28.533Z,32.60
2022-08-20T17:21:35.585Z,33.10
2022-08-20T17:25:38.596Z,33.60
2022-08-20T17:29:54.684Z,33.60
2022-08-20T17:33:57.481Z,33.60
2022-08-20T17:38:02.779Z,33.80
2022-08-20T17:42:14.872Z,33.90
2022-08-20T17:46:18.058Z,33.20
2022-08-20T17:50:29.931Z,32.50
2022-08-20T17:54:44.008Z,32.00
2022-08-20T17:59:24.065Z,31.90
2022-08-20T18:03:39.724Z,31.60
2022-08-20T18:07:51.162Z,31.00
2022-08-20T18:12:08.342Z,30.50
2022-08-20T18:16:56.131Z,30.10
2022-08-20T18:21:32.543Z,29.80
2022-08-20T18:25:41.005Z,29.50
2022-08-20T18:29:46.725Z,29.30
2022-08-20T18:33:49.631Z,29.00
2022-08-20T18:37:52.747Z,28.90
2022-08-20T18:42:31.527Z,28.70
2022-08-20T18:46:35.182Z,28.50
2022-08-20T18:50:41.224Z,28.30
2022-08-20T18:54:51.945Z,28.20
2022-08-20T18:59:10.191Z,28.00
2022-08-20T19:03:26.668Z,27.90
2022-08-20T19:07:43.258Z,27.80
2022-08-20T19:12:19.037Z,27.70
2022-08-20T19:16:34.585Z,27.50
2022-08-20T19:20:51.296Z,27.40
2022-08-20T19:24:58.760Z,27.30
2022-08-20T19:29:08.449Z,27.10
2022-08-20T19:33:14.055Z,27.10
2022-08-20T19:37:28.164Z,27.00
2022-08-20T19:41:50.032Z,27.00
2022-08-20T19:45:54.670Z,27.00
2022-08-20T19:50:07.202Z,26.80
2022-08-20T19:54:22.847Z,26.70
2022-08-20T19:58:27.206Z,26.60
2022-08-20T20:02:32.045Z,26.50
2022-08-20T20:06:44.723Z,26.40
2022-08-20T20:10:54.408Z,26.40
2022-08-20T20:14:57.600Z,26.30
2022-08-20T20:19:24.820Z,26.20
2022-08-20T20:23:45.510Z,26.20
2022-08-20T20:27:52.564Z,26.10
2022-08-20T20:31:58.616Z,26.00
2022-08-20T20:36:14.109Z,26.00
2022-08-20T20:40:25.863Z,25.90
2022-08-20T20:44:37.344Z,25.80
2022-08-20T20:48:48.601Z,25.80
2022-08-20T20:52:54.679Z,25.80
2022-08-20T20:57:07.617Z,25.70
2022-08-20T21:01:10.591Z,25.70
2022-08-20T21:05:15.313Z,25.60
2022-08-20T21:09:18.908Z,25.60
2022-08-20T21:13:21.571Z,25.50
2022-08-20T21:17:24.461Z,25.50
2022-08-20T21:21:27.240Z,25.50
2022-08-20T21:25:55.538Z,25.40
2022-08-20T21:30:00.845Z,25.30
2022-08-20T21:34:03.854Z,25.20
2022-08-20T21:38:06.960Z,25.20
2022-08-20T21:42:28.235Z,25.10
2022-08-20T21:46:32.519Z,25.00
2022-08-20T21:50:38.620Z,24.90
2022-08-20T21:54:43.915Z,24.90
2022-08-20T21:58:48.909Z,24.80
2022-08-20T22:02:53.423Z,24.70
2022-08-20T22:06:56.493Z,24.50
2022-08-20T22:10:59.729Z,24.50
2022-08-20T22:15:03.025Z,24.50
2022-08-20T22:19:10.715Z,24.30
2022-08-20T22:23:16.840Z,24.20
2022-08-20T22:27:19.591Z,24.10
2022-08-20T22:31:26.943Z,24.00
2022-08-20T22:35:35.287Z,24.00
2022-08-20T22:39:38.066Z,23.90
2022-08-20T22:43:45.004Z,23.90
2022-08-20T22:48:00.780Z,24.00
2022-08-20T22:52:03.745Z,23.90
2022-08-20T22:56:06.850Z,23.90
2022-08-20T23:00:21.900Z,23.90
2022-08-20T23:04:32.638Z,24.00
2022-08-20T23:08:35.694Z,24.00
2022-08-20T23:12:38.670Z,24.10
2022-08-20T23:16:44.876Z,24.10
2022-08-20T23:20:56.051Z,24.10
2022-08-20T23:25:00.578Z,24.10
2022-08-20T23:29:03.785Z,24.10
2022-08-20T23:33:06.505Z,24.10
2022-08-20T23:37:10.353Z,24.10
2022-08-20T23:41:13.289Z,24.10
2022-08-20T23:45:16.960Z,24.00
2022-08-20T23:49:19.740Z,24.10
2022-08-20T23:53:22.526Z,24.00
